createdAt,value
2022-10-20T00:01:07.829Z,6.39
2022-10-20T00:03:34.493Z,6.21
2022-10-20T00:06:08.602Z,5.97
2022-10-20T00:08:35.343Z,5.86
2022-10-20T00:11:01.960Z,6.17
2022-10-20T00:13:28.733Z,6.23
2022-10-20T00:15:56.700Z,6.48
2022-10-20T00:18:23.931Z,6.54
2022-10-20T00:20:51.193Z,6.68
2022-10-20T00:23:18.656Z,6.80
2022-10-20T00:25:45.538Z,6.55
2022-10-20T00:28:12.364Z,6.52
2022-10-20T00:30:39.518Z,6.56
2022-10-20T00:33:06.992Z,6.69
2022-10-20T00:35:37.767Z,6.40
2022-10-20T00:38:04.736Z,6.55
2022-10-20T00:40:31.368Z,6.67
2022-10-20T00:42:58.028Z,6.51
2022-10-20T00:45:25.161Z,6.31
2022-10-20T00:47:59.221Z,6.47
2022-10-20T00:50:30.969Z,6.30
2022-10-20T00:52:57.835Z,6.00
2022-10-20T00:55:28.410Z,6.41
2022-10-20T00:57:57.478Z,6.38
2022-10-20T01:00:25.301Z,6.32
2022-10-20T01:02:54.548Z,6.27
2022-10-20T01:05:21.978Z,6.31
2022-10-20T01:07:48.648Z,6.18
2022-10-20T01:10:16.104Z,5.98
2022-10-20T01:13:07.607Z,6.19
2022-10-20T01:15:46.819Z,6.16
2022-10-20T01:18:16.262Z,5.99
2022-10-20T01:21:04.345Z,5.88
2022-10-20T01:23:58.534Z,5.82
2022-10-20T01:26:36.974Z,5.78
2022-10-20T01:29:19.712Z,5.66
2022-10-20T01:32:14.347Z,5.87
2022-10-20T01:34:57.382Z,5.81
2022-10-20T01:38:02.480Z,5.75
2022-10-20T01:40:37.258Z,5.59
2022-10-20T01:43:10.336Z,5.69
2022-10-20T01:45:39.511Z,5.62
2022-10-20T01:48:08.883Z,5.35
2022-10-20T01:50:37.015Z,5.62
2022-10-20T01:53:03.884Z,5.71
2022-10-20T01:55:31.135Z,5.05
2022-10-20T01:58:12.867Z,5.75
2022-10-20T02:00:40.284Z,5.71
2022-10-20T02:03:36.907Z,5.69
2022-10-20T02:06:29.949Z,5.63
2022-10-20T02:09:01.005Z,5.63
2022-10-20T02:11:38.844Z,5.06
2022-10-20T02:14:07.729Z,4.86
2022-10-20T02:16:39.794Z,5.42
2022-10-20T02:19:09.287Z,4.98
2022-10-20T02:21:36.932Z,5.04
2022-10-20T02:24:08.836Z,5.19
2022-10-20T02:26:38.124Z,5.21
2022-10-20T02:29:15.198Z,5.19
2022-10-20T02:31:44.072Z,5.00
2022-10-20T02:34:11.978Z,4.81
2022-10-20T02:36:41.515Z,4.82
2022-10-20T02:39:08.936Z,4.71
2022-10-20T02:41:36.512Z,4.70
2022-10-20T02:44:03.771Z,4.59
2022-10-20T02:46:30.487Z,4.54
2022-10-20T02:48:57.129Z,4.73
2022-10-20T02:51:23.714Z,4.95
2022-10-20T02:53:50.453Z,4.70
2022-10-20T02:56:17.095Z,5.03
2022-10-20T02:58:43.975Z,4.70
2022-10-20T03:01:10.910Z,4.96
2022-10-20T03:03:37.489Z,4.59
2022-10-20T03:06:12.249Z,4.82
2022-10-20T03:08:39.077Z,4.79
2022-10-20T03:11:05.982Z,4.90
2022-10-20T03:13:32.797Z,4.74
2022-10-20T03:15:59.736Z,4.56
2022-10-20T03:18:26.384Z,4.59
2022-10-20T03:20:54.190Z,4.60
2022-10-20T03:23:21.227Z,4.70
2022-10-20T03:25:48.405Z,4.86
2022-10-20T03:28:15.117Z,4.71
2022-10-20T03:30:41.710Z,4.75
2022-10-20T03:33:09.361Z,4.55
2022-10-20T03:35:36.071Z,4.53
2022-10-20T03:38:02.751Z,4.40
2022-10-20T03:40:29.316Z,4.30
2022-10-20T03:42:55.912Z,4.38
2022-10-20T03:45:22.508Z,3.91
2022-10-20T03:47:49.315Z,4.40
2022-10-20T03:50:16.055Z,4.14
2022-10-20T03:52:42.686Z,4.22
2022-10-20T03:55:09.780Z,3.95
2022-10-20T03:57:36.658Z,3.78
2022-10-20T04:00:04.226Z,3.90
2022-10-20T04:02:35.088Z,3.86
2022-10-20T04:05:02.374Z,3.84
2022-10-20T04:07:29.028Z,3.90
2022-10-20T04:09:56.198Z,4.04
2022-10-20T04:12:23.281Z,4.05
2022-10-20T04:14:50.639Z,3.89
2022-10-20T04:17:17.248Z,3.88
2022-10-20T04:19:44.282Z,4.28
2022-10-20T04:22:10.896Z,4.33
2022-10-20T04:24:37.614Z,4.04
2022-10-20T04:27:04.823Z,4.38
2022-10-20T04:29:31.904Z,4.49
2022-10-20T04:31:58.804Z,4.30
2022-10-20T04:34:25.488Z,4.04
2022-10-20T04:36:52.124Z,4.50
2022-10-20T04:39:18.742Z,4.45
2022-10-20T04:41:45.505Z,4.49
2022-10-20T04:44:12.149Z,4.29
2022-10-20T04:46:38.751Z,4.25
2022-10-20T04:49:05.775Z,4.22
2022-10-20T04:51:32.380Z,4.21
2022-10-20T04:53:59.008Z,4.28
2022-10-20T04:56:25.995Z,3.85
2022-10-20T04:58:55.395Z,4.23
2022-10-20T05:01:27.993Z,4.16
2022-10-20T05:03:54.847Z,3.99
2022-10-20T05:06:32.522Z,3.91
2022-10-20T05:09:01.391Z,3.88
2022-10-20T05:11:29.587Z,4.22
2022-10-20T05:13:57.707Z,4.12
2022-10-20T05:16:24.600Z,3.93
2022-10-20T05:18:52.337Z,3.77
2022-10-20T05:21:22.100Z,3.61
2022-10-20T05:23:49.572Z,3.86
2022-10-20T05:26:18.548Z,3.98
2022-10-20T05:28:50.440Z,4.28
2022-10-20T05:31:19.599Z,4.19
2022-10-20T05:33:49.025Z,4.07
2022-10-20T05:39:05.113Z,4.33
2022-10-20T05:41:36.460Z,4.39
2022-10-20T05:44:08.600Z,4.33
2022-10-20T05:46:38.437Z,4.54
2022-10-20T05:49:05.174Z,4.39
2022-10-20T05:51:35.647Z,4.34
2022-10-20T05:54:02.351Z,4.72
2022-10-20T05:56:30.278Z,4.71
2022-10-20T05:58:57.603Z,4.84
2022-10-20T06:01:38.831Z,4.81
2022-10-20T06:04:07.028Z,4.84
2022-10-20T06:06:33.762Z,4.69
2022-10-20T06:09:01.622Z,5.06
2022-10-20T06:11:28.434Z,5.12
2022-10-20T06:13:56.590Z,5.02
2022-10-20T06:16:25.720Z,5.16
2022-10-20T06:18:53.237Z,5.40
2022-10-20T06:21:26.935Z,5.29
2022-10-20T06:23:53.929Z,5.55
2022-10-20T06:26:23.828Z,5.63
2022-10-20T06:28:53.901Z,5.63
2022-10-20T06:31:22.052Z,5.69
2022-10-20T06:33:49.520Z,5.97
2022-10-20T06:36:16.688Z,6.02
2022-10-20T06:38:43.962Z,6.35
2022-10-20T06:41:12.854Z,6.53
2022-10-20T06:43:39.581Z,6.28
2022-10-20T06:46:10.267Z,6.57
2022-10-20T06:48:36.907Z,6.67
2022-10-20T06:57:25.679Z,7.53
2022-10-20T06:59:52.306Z,7.59
2022-10-20T07:02:18.935Z,7.87
2022-10-20T07:04:45.627Z,7.96
2022-10-20T07:07:12.206Z,8.22
2022-10-20T07:09:38.855Z,8.25
2022-10-20T07:12:05.632Z,8.49
2022-10-20T07:14:32.569Z,8.76
2022-10-20T07:16:59.242Z,8.92
2022-10-20T07:19:25.947Z,9.06
2022-10-20T07:21:52.536Z,9.29
2022-10-20T07:24:19.182Z,9.16
2022-10-20T07:26:45.845Z,9.46
2022-10-20T07:29:14.605Z,9.47
2022-10-20T07:31:48.424Z,9.64
2022-10-20T07:34:27.200Z,9.77
2022-10-20T07:36:55.509Z,9.66
2022-10-20T07:39:22.208Z,9.83
2022-10-20T07:41:48.969Z,9.88
2022-10-20T07:44:19.204Z,10.13
2022-10-20T07:46:45.893Z,10.04
2022-10-20T07:51:59.197Z,10.54
2022-10-20T07:54:25.871Z,10.49
2022-10-20T07:56:52.551Z,10.59
2022-10-20T07:59:19.787Z,10.77
2022-10-20T08:01:46.861Z,10.94
2022-10-20T08:04:16.653Z,10.80
2022-10-20T08:06:43.416Z,10.64
2022-10-20T08:09:10.029Z,10.91
2022-10-20T08:11:36.656Z,10.75
2022-10-20T08:14:03.659Z,11.18
2022-10-20T08:16:30.745Z,11.37
2022-10-20T08:19:07.022Z,11.23
2022-10-20T08:21:33.770Z,11.04
2022-10-20T08:24:02.543Z,11.45
2022-10-20T08:26:29.160Z,11.64
2022-10-20T08:28:55.941Z,11.74
2022-10-20T08:31:23.361Z,11.94
2022-10-20T08:33:52.966Z,12.01
2022-10-20T08:36:20.190Z,11.93
2022-10-20T08:38:46.856Z,11.99
2022-10-20T08:41:27.075Z,12.24
2022-10-20T08:43:58.024Z,12.32
2022-10-20T08:46:38.520Z,12.25
2022-10-20T08:49:07.830Z,12.43
2022-10-20T08:51:38.510Z,12.52
2022-10-20T08:54:11.591Z,12.71
2022-10-20T08:56:38.301Z,12.61
2022-10-20T08:59:22.932Z,12.45
2022-10-20T09:01:49.712Z,12.70
2022-10-20T09:04:23.639Z,12.48
2022-10-20T09:07:21.654Z,12.36
2022-10-20T09:09:48.467Z,12.30
2022-10-20T09:12:15.447Z,12.19
2022-10-20T09:14:42.451Z,12.40
2022-10-20T09:17:18.805Z,12.55
2022-10-20T09:19:54.587Z,12.51
2022-10-20T09:22:22.410Z,12.82
2022-10-20T09:24:52.067Z,12.40
2022-10-20T09:27:30.030Z,12.48
2022-10-20T09:29:56.697Z,12.56
2022-10-20T09:32:50.909Z,12.81
2022-10-20T09:35:36.838Z,12.90
2022-10-20T09:38:24.879Z,13.16
2022-10-20T09:41:13.312Z,13.09
2022-10-20T09:44:00.459Z,13.45
2022-10-20T09:46:30.104Z,13.49
2022-10-20T09:48:56.943Z,13.22
2022-10-20T09:51:28.632Z,13.06
2022-10-20T09:54:03.352Z,13.56
2022-10-20T09:56:31.929Z,13.61
2022-10-20T09:59:00.840Z,13.90
2022-10-20T10:01:27.587Z,13.53
2022-10-20T10:04:02.190Z,13.38
2022-10-20T10:06:42.476Z,13.19
2022-10-20T10:09:27.407Z,13.27
2022-10-20T10:12:03.784Z,13.17
2022-10-20T10:14:33.555Z,13.10
2022-10-20T10:17:01.211Z,13.27
2022-10-20T10:19:31.421Z,12.92
2022-10-20T10:22:00.702Z,13.16
2022-10-20T10:24:30.075Z,13.25
2022-10-20T10:26:57.148Z,13.14
2022-10-20T10:29:43.002Z,13.25
2022-10-20T10:32:20.899Z,13.68
2022-10-20T10:35:07.896Z,13.78
2022-10-20T10:37:36.587Z,13.76
2022-10-20T10:40:18.098Z,13.96
2022-10-20T10:42:50.476Z,13.98
2022-10-20T10:45:26.079Z,14.29
2022-10-20T10:48:26.937Z,14.39
2022-10-20T10:51:05.712Z,14.36
2022-10-20T10:53:47.505Z,14.28
2022-10-20T10:56:43.757Z,14.19
2022-10-20T10:59:29.195Z,14.08
2022-10-20T11:02:17.271Z,14.07
2022-10-20T11:04:43.811Z,13.72
2022-10-20T11:07:19.119Z,13.92
2022-10-20T11:09:45.686Z,14.19
2022-10-20T11:12:55.096Z,14.12
2022-10-20T11:15:34.200Z,14.30
2022-10-20T11:18:19.488Z,14.28
2022-10-20T11:21:08.889Z,14.46
2022-10-20T11:24:14.147Z,14.56
2022-10-20T11:26:44.985Z,14.69
2022-10-20T11:29:32.184Z,14.61
2022-10-20T11:32:23.733Z,14.35
2022-10-20T11:35:15.271Z,14.47
2022-10-20T11:38:06.676Z,14.66
2022-10-20T11:40:39.943Z,14.80
2022-10-20T11:43:13.341Z,14.81
2022-10-20T11:45:43.010Z,14.85
2022-10-20T11:48:19.458Z,14.67
2022-10-20T11:50:59.190Z,14.50
2022-10-20T11:53:44.446Z,14.82
2022-10-20T11:56:45.278Z,14.66
2022-10-20T11:59:35.298Z,14.37
2022-10-20T12:02:20.697Z,14.57
2022-10-20T12:05:25.013Z,14.57
2022-10-20T12:08:28.241Z,14.50
2022-10-20T12:11:03.577Z,14.58
2022-10-20T12:13:42.035Z,14.74
2022-10-20T12:16:09.192Z,14.58
2022-10-20T12:18:37.520Z,14.14
2022-10-20T12:21:09.971Z,14.06
2022-10-20T12:23:42.787Z,14.51
2022-10-20T12:26:29.951Z,14.57
2022-10-20T12:28:57.542Z,14.50
2022-10-20T12:31:25.719Z,14.26
2022-10-20T12:33:53.436Z,14.48
2022-10-20T12:36:19.966Z,14.73
2022-10-20T12:38:50.882Z,14.25
2022-10-20T12:41:58.455Z,14.65
2022-10-20T12:44:28.392Z,14.52
2022-10-20T12:46:58.680Z,14.32
2022-10-20T12:49:33.520Z,14.51
2022-10-20T12:52:02.486Z,14.08
2022-10-20T12:54:31.813Z,14.20
2022-10-20T12:57:02.623Z,14.05
2022-10-20T12:59:29.140Z,14.13
2022-10-20T13:02:10.918Z,14.27
2022-10-20T13:05:22.586Z,14.20
2022-10-20T13:07:49.321Z,14.25
2022-10-20T13:10:25.286Z,14.36
2022-10-20T13:12:53.097Z,14.21
2022-10-20T13:15:22.360Z,14.27
2022-10-20T13:18:01.139Z,14.10
2022-10-20T13:20:52.766Z,14.21
2022-10-20T13:23:30.440Z,14.19
2022-10-20T13:26:02.852Z,14.29
2022-10-20T13:28:31.712Z,14.34
2022-10-20T13:31:07.402Z,14.28
2022-10-20T13:34:02.780Z,14.20
2022-10-20T13:36:54.624Z,14.14
2022-10-20T13:39:58.489Z,14.15
2022-10-20T13:42:37.541Z,14.21
2022-10-20T13:45:26.163Z,14.19
2022-10-20T13:48:13.005Z,14.04
2022-10-20T13:50:43.824Z,14.03
2022-10-20T13:53:26.634Z,13.90
2022-10-20T13:55:56.299Z,13.96
2022-10-20T13:58:24.293Z,13.75
2022-10-20T14:01:01.834Z,13.93
2022-10-20T14:03:32.265Z,13.80
2022-10-20T14:05:59.387Z,13.81
2022-10-20T14:08:26.520Z,13.72
2022-10-20T14:10:57.811Z,13.91
2022-10-20T14:13:31.337Z,13.82
2022-10-20T14:16:00.120Z,13.54
2022-10-20T14:18:29.445Z,13.41
2022-10-20T14:21:04.662Z,13.62
2022-10-20T14:23:36.996Z,13.57
2022-10-20T14:26:07.346Z,13.45
2022-10-20T14:28:36.015Z,13.37
2022-10-20T14:31:03.364Z,12.80
2022-10-20T14:33:30.751Z,13.13
2022-10-20T14:35:59.601Z,12.99
2022-10-20T14:38:37.650Z,12.95
2022-10-20T14:41:07.090Z,12.96
2022-10-20T14:43:48.808Z,12.76
2022-10-20T14:46:29.434Z,12.83
2022-10-20T14:48:58.427Z,12.70
2022-10-20T14:51:45.080Z,12.79
2022-10-20T14:54:21.003Z,12.81
2022-10-20T14:56:49.835Z,12.81
2022-10-20T14:59:30.820Z,12.65
2022-10-20T15:02:12.621Z,12.56
2022-10-20T15:04:43.845Z,12.43
2022-10-20T15:07:22.663Z,12.45
2022-10-20T15:09:49.259Z,12.36
2022-10-20T15:12:22.362Z,12.26
2022-10-20T15:14:54.506Z,12.13
2022-10-20T15:17:45.420Z,11.78
2022-10-20T15:20:30.618Z,11.79
2022-10-20T15:22:58.890Z,11.54
2022-10-20T15:25:28.151Z,11.53
2022-10-20T15:27:57.943Z,11.26
2022-10-20T15:30:26.117Z,11.21
2022-10-20T15:32:54.621Z,11.09
2022-10-20T15:35:24.261Z,10.91
2022-10-20T15:37:54.647Z,10.70
2022-10-20T15:40:21.844Z,10.57
2022-10-20T15:42:49.117Z,10.31
2022-10-20T15:45:19.966Z,10.11
2022-10-20T15:47:46.705Z,9.92
2022-10-20T15:50:13.838Z,9.77
2022-10-20T15:52:40.944Z,9.55
2022-10-20T15:55:29.187Z,9.33
2022-10-20T15:57:56.219Z,9.26
2022-10-20T16:00:24.952Z,8.94
2022-10-20T16:02:52.338Z,8.96
2022-10-20T16:05:23.172Z,8.82
2022-10-20T16:07:54.229Z,8.76
2022-10-20T16:10:28.483Z,8.46
2022-10-20T16:12:55.447Z,8.36
2022-10-20T16:15:22.119Z,8.02
2022-10-20T16:20:16.402Z,7.95
2022-10-20T16:22:43.031Z,7.81
2022-10-20T16:25:10.122Z,7.69
2022-10-20T16:27:37.303Z,7.39
2022-10-20T16:30:05.600Z,7.39
2022-10-20T16:32:35.392Z,7.42
2022-10-20T16:35:03.949Z,7.33
2022-10-20T16:37:32.039Z,7.23
2022-10-20T16:39:59.619Z,6.93
2022-10-20T16:42:27.515Z,6.88
2022-10-20T16:44:54.193Z,6.79
2022-10-20T16:47:20.939Z,6.73
2022-10-20T16:49:47.587Z,6.65
2022-10-20T16:52:15.596Z,6.47
2022-10-20T16:54:42.463Z,6.71
2022-10-20T16:57:11.364Z,6.43
2022-10-20T16:59:39.111Z,6.51
2022-10-20T17:02:10.488Z,6.29
2022-10-20T17:04:38.191Z,6.12
2022-10-20T17:07:04.865Z,6.12
2022-10-20T17:09:31.476Z,6.06
2022-10-20T17:11:58.094Z,5.81
2022-10-20T17:14:24.756Z,5.75
2022-10-20T17:16:51.415Z,5.60
2022-10-20T17:19:18.089Z,5.72
2022-10-20T17:21:44.703Z,5.59
2022-10-20T17:24:12.497Z,5.63
2022-10-20T17:26:41.117Z,5.61
2022-10-20T17:29:09.545Z,5.57
2022-10-20T17:31:37.915Z,5.49
2022-10-20T17:34:05.253Z,5.37
2022-10-20T17:36:32.875Z,5.23
2022-10-20T17:39:02.277Z,5.14
2022-10-20T17:41:29.747Z,5.06
2022-10-20T17:43:59.295Z,5.00
2022-10-20T17:46:26.038Z,4.90
2022-10-20T17:48:53.077Z,4.80
2022-10-20T17:51:27.800Z,4.73
2022-10-20T17:53:58.144Z,4.81
2022-10-20T17:56:34.395Z,4.95
2022-10-20T17:59:05.055Z,4.76
2022-10-20T18:01:34.560Z,4.68
2022-10-20T18:04:05.220Z,4.59
2022-10-20T18:06:34.596Z,4.28
2022-10-20T18:09:05.478Z,4.29
2022-10-20T18:11:34.631Z,4.34
2022-10-20T18:14:01.623Z,4.31
2022-10-20T18:16:31.145Z,4.13
2022-10-20T18:18:59.068Z,4.25
2022-10-20T18:21:27.335Z,4.04
2022-10-20T18:23:59.352Z,4.17
2022-10-20T18:26:26.013Z,4.00
2022-10-20T18:28:52.851Z,4.12
2022-10-20T18:31:23.210Z,4.12
2022-10-20T18:33:52.612Z,4.11
2022-10-20T18:36:19.899Z,3.76
2022-10-20T18:38:47.492Z,3.93
2022-10-20T18:41:16.991Z,3.84
2022-10-20T18:43:45.517Z,3.91
2022-10-20T18:46:13.285Z,3.84
2022-10-20T18:48:41.291Z,3.59
2022-10-20T18:51:09.963Z,3.86
2022-10-20T18:53:38.513Z,3.67
2022-10-20T18:56:14.280Z,3.60
2022-10-20T18:58:43.214Z,3.76
2022-10-20T19:01:12.091Z,3.80
2022-10-20T19:03:39.983Z,3.78
2022-10-20T19:06:09.732Z,3.78
2022-10-20T19:08:40.553Z,3.72
2022-10-20T19:11:10.694Z,3.56
2022-10-20T19:13:37.825Z,3.40
2022-10-20T19:16:15.670Z,3.60
2022-10-20T19:18:45.102Z,3.41
2022-10-20T19:21:11.811Z,3.52
2022-10-20T19:23:42.392Z,3.24
2022-10-20T19:26:11.094Z,3.39
2022-10-20T19:28:45.468Z,3.36
2022-10-20T19:31:29.075Z,3.27
2022-10-20T19:34:02.395Z,3.36
2022-10-20T19:36:29.944Z,3.31
2022-10-20T19:38:56.777Z,3.28
2022-10-20T19:41:24.220Z,3.26
2022-10-20T19:43:51.031Z,3.13
2022-10-20T19:46:19.664Z,3.23
2022-10-20T19:48:47.354Z,3.22
2022-10-20T19:51:15.326Z,3.07
2022-10-20T19:53:45.239Z,3.09
2022-10-20T19:56:12.446Z,3.19
2022-10-20T19:58:42.632Z,3.17
2022-10-20T20:01:16.583Z,3.11
2022-10-20T20:03:43.895Z,3.06
2022-10-20T20:06:16.599Z,3.05
2022-10-20T20:08:53.884Z,3.02
2022-10-20T20:11:23.924Z,2.86
2022-10-20T20:13:52.016Z,2.85
2022-10-20T20:16:18.871Z,2.94
2022-10-20T20:18:45.680Z,2.72
2022-10-20T20:21:12.837Z,2.79
2022-10-20T20:23:54.798Z,2.75
2022-10-20T20:26:25.966Z,2.82
2022-10-20T20:28:54.167Z,2.90
2022-10-20T20:31:21.828Z,2.88
2022-10-20T20:33:48.887Z,2.88
2022-10-20T20:36:15.684Z,2.75
2022-10-20T20:38:42.575Z,2.73
2022-10-20T20:41:14.929Z,2.84
2022-10-20T20:43:41.657Z,2.59
2022-10-20T20:46:12.157Z,2.73
2022-10-20T20:48:38.981Z,2.55
2022-10-20T20:51:05.911Z,2.29
2022-10-20T20:53:34.733Z,2.68
2022-10-20T20:56:04.256Z,2.65
2022-10-20T20:58:32.399Z,2.61
2022-10-20T21:01:08.277Z,2.54
2022-10-20T21:03:35.532Z,2.52
2022-10-20T21:06:06.765Z,2.56
2022-10-20T21:08:35.032Z,2.56
2022-10-20T21:11:10.204Z,2.50
2022-10-20T21:13:37.560Z,2.36
2022-10-20T21:16:28.604Z,2.53
2022-10-20T21:18:58.085Z,2.49
2022-10-20T21:21:25.731Z,2.45
2022-10-20T21:23:53.459Z,2.43
2022-10-20T21:26:22.345Z,2.21
2022-10-20T21:28:49.834Z,2.18
2022-10-20T21:31:21.832Z,2.12
2022-10-20T21:33:53.671Z,2.24
2022-10-20T21:36:23.726Z,2.33
2022-10-20T21:38:50.587Z,2.34
2022-10-20T21:41:23.177Z,2.28
2022-10-20T21:43:55.382Z,2.23
2022-10-20T21:46:33.823Z,2.16
2022-10-20T21:49:06.054Z,1.99
2022-10-20T21:51:35.616Z,1.91
2022-10-20T21:54:04.240Z,1.95
2022-10-20T21:56:34.248Z,1.87
2022-10-20T21:59:00.718Z,1.92
2022-10-20T22:01:27.410Z,1.72
2022-10-20T22:03:54.733Z,1.78
2022-10-20T22:06:24.728Z,1.88
2022-10-20T22:08:53.268Z,1.83
2022-10-20T22:11:23.244Z,1.81
2022-10-20T22:13:50.556Z,1.75
2022-10-20T22:16:20.414Z,1.79
2022-10-20T22:18:47.758Z,1.77
2022-10-20T22:21:16.684Z,1.72
2022-10-20T22:23:44.608Z,1.59
2022-10-20T22:26:12.084Z,1.67
2022-10-20T22:28:39.180Z,1.56
2022-10-20T22:31:07.023Z,1.56
2022-10-20T22:33:33.835Z,1.56
2022-10-20T22:36:00.550Z,1.58
2022-10-20T22:38:27.154Z,1.41
2022-10-20T22:41:01.235Z,1.35
2022-10-20T22:43:29.284Z,1.17
2022-10-20T22:45:57.136Z,1.43
2022-10-20T22:48:24.775Z,1.42
2022-10-20T22:50:51.423Z,1.30
2022-10-20T22:53:18.027Z,1.27
2022-10-20T22:55:44.831Z,1.36
2022-10-20T22:58:11.425Z,1.49
2022-10-20T23:00:42.007Z,1.41
2022-10-20T23:03:11.897Z,1.41
2022-10-20T23:05:38.470Z,1.30
2022-10-20T23:08:06.029Z,1.23
2022-10-20T23:10:32.951Z,1.16
2022-10-20T23:12:59.539Z,1.09
2022-10-20T23:15:27.374Z,1.09
2022-10-20T23:17:53.974Z,0.98
2022-10-20T23:20:20.608Z,1.02
2022-10-20T23:22:48.441Z,1.05
2022-10-20T23:25:15.307Z,1.13
2022-10-20T23:27:41.910Z,1.23
2022-10-20T23:30:09.034Z,1.11
2022-10-20T23:32:35.621Z,1.25
2022-10-20T23:35:02.215Z,1.23
2022-10-20T23:37:28.786Z,1.11
2022-10-20T23:39:57.531Z,0.87
2022-10-20T23:42:24.167Z,0.98
2022-10-20T23:44:50.726Z,0.96
2022-10-20T23:47:17.338Z,0.89
2022-10-20T23:49:43.946Z,0.99
2022-10-20T23:52:10.522Z,0.95
2022-10-20T23:54:39.238Z,0.71
2022-10-20T23:57:05.819Z,0.72
2022-10-20T23:59:32.372Z,0.70
